ENSO/SRP METAR and TAF weather

Enter ICAO airport designator
Station Type Date Time Source
ENSO METAR 2020/11/26 20:50 UTC NOAA

ENSO 262050Z 10007KT 9999 SCT034 03/02 Q1019


Station Type Date Time Source
ENSO Decoded METAR 2020/11/26 20:50 UTC NOAA

Stord / Soerstokken, Norway (ENSO) 59-48N 005-21E
Nov 26, 2020 - 03:50 PM EST / 2020.11.26 2050 UTC
Wind: from the E (100 degrees) at 8 MPH (7 KT):0
Visibility: greater than 7 mile(s):0
Sky conditions: partly cloudy
Temperature: 37 F (3 C)
Dew Point: 35 F (2 C)
Relative Humidity: 93%
Pressure (altimeter): 30.09 in. Hg (1019 hPa)
ob: ENSO 262050Z 10007KT 9999 SCT034 03/02 Q1019
cycle: 21

Station Type Date Time Source
ENSO TAF UTC NOAA

Error!

Example: see airport list